createdAt,value
2022-12-12T00:01:23.319Z,28.60
2022-12-12T00:03:52.119Z,28.55
2022-12-12T00:06:20.950Z,28.40
2022-12-12T00:08:48.652Z,27.35
2022-12-12T00:11:16.391Z,29.23
2022-12-12T00:13:43.963Z,29.33
2022-12-12T00:16:12.786Z,29.55
2022-12-12T00:18:40.981Z,26.63
2022-12-12T00:21:21.281Z,26.55
2022-12-12T00:23:48.822Z,25.73
2022-12-12T00:26:20.891Z,29.25
2022-12-12T00:28:48.964Z,25.52
2022-12-12T00:31:17.406Z,29.48
2022-12-12T00:33:48.008Z,25.08
2022-12-12T00:36:17.451Z,22.73
2022-12-12T00:38:45.087Z,26.25
2022-12-12T00:41:12.597Z,26.95
2022-12-12T00:43:40.275Z,24.83
2022-12-12T00:46:08.487Z,23.55
2022-12-12T00:48:35.999Z,25.73
2022-12-12T00:51:09.522Z,24.92
2022-12-12T00:53:38.364Z,25.73
2022-12-12T00:56:06.699Z,21.98
2022-12-12T00:58:35.377Z,20.98
2022-12-12T01:01:09.996Z,23.30
2022-12-12T01:03:39.676Z,20.98
2022-12-12T01:06:08.009Z,20.33
2022-12-12T01:08:38.062Z,21.20
2022-12-12T01:11:06.886Z,21.75
2022-12-12T01:13:35.067Z,18.08
2022-12-12T01:16:02.744Z,19.98
2022-12-12T01:18:30.522Z,20.80
2022-12-12T01:20:58.109Z,19.05
2022-12-12T01:23:25.773Z,20.10
2022-12-12T01:26:06.006Z,19.67
2022-12-12T01:28:34.521Z,19.88
2022-12-12T01:31:02.081Z,22.38
2022-12-12T01:33:29.758Z,19.48
2022-12-12T01:35:57.560Z,19.33
2022-12-12T01:38:25.533Z,22.02
2022-12-12T01:40:53.873Z,25.00
2022-12-12T01:43:23.037Z,22.20
2022-12-12T01:46:02.722Z,25.23
2022-12-12T01:48:38.237Z,25.20
2022-12-12T01:51:11.609Z,24.55
2022-12-12T01:53:39.581Z,25.50
2022-12-12T01:56:12.460Z,26.73
2022-12-12T01:58:42.976Z,26.58
2022-12-12T02:01:11.350Z,31.15
2022-12-12T02:03:40.057Z,30.48
2022-12-12T02:06:11.919Z,28.65
2022-12-12T02:08:40.962Z,31.95
2022-12-12T02:11:08.411Z,33.30
2022-12-12T02:13:36.405Z,31.17
2022-12-12T02:16:06.857Z,36.95
2022-12-12T02:19:03.278Z,32.10
2022-12-12T02:21:33.786Z,35.05
2022-12-12T02:24:26.340Z,32.95
2022-12-12T02:27:12.474Z,36.28
2022-12-12T02:30:04.278Z,36.47
2022-12-12T02:32:46.446Z,33.05
2022-12-12T02:35:32.331Z,33.88
2022-12-12T02:38:28.370Z,32.03
2022-12-12T02:41:10.829Z,30.42
2022-12-12T02:44:07.736Z,37.22
2022-12-12T02:46:51.982Z,32.38
2022-12-12T02:49:28.774Z,34.17
2022-12-12T02:51:57.738Z,31.10
2022-12-12T02:54:25.264Z,30.55
2022-12-12T02:57:00.585Z,33.38
2022-12-12T02:59:37.828Z,30.08
2022-12-12T03:02:27.264Z,32.35
2022-12-12T03:05:28.705Z,34.58
2022-12-12T03:08:17.994Z,35.20
2022-12-12T03:10:57.798Z,35.42
2022-12-12T03:13:46.078Z,33.70
2022-12-12T03:16:32.600Z,30.20
2022-12-12T03:19:20.615Z,31.40
2022-12-12T03:21:53.104Z,31.55
2022-12-12T03:24:47.753Z,32.65
2022-12-12T03:27:20.973Z,35.47
2022-12-12T03:30:07.105Z,32.83
2022-12-12T03:32:42.667Z,36.53
2022-12-12T03:35:35.641Z,33.83
2022-12-12T03:38:14.251Z,33.08
2022-12-12T03:40:56.426Z,33.65
2022-12-12T03:43:30.864Z,29.13
2022-12-12T03:46:24.626Z,36.92
2022-12-12T03:49:16.827Z,36.42
2022-12-12T03:51:57.699Z,37.53
2022-12-12T03:54:38.481Z,38.70
2022-12-12T03:57:15.327Z,36.67
2022-12-12T03:59:47.399Z,44.42
2022-12-12T04:02:22.320Z,37.85
2022-12-12T04:05:15.358Z,39.50
2022-12-12T04:07:52.873Z,43.40
2022-12-12T04:10:42.578Z,46.05
2022-12-12T04:13:28.860Z,44.50
2022-12-12T04:16:01.784Z,46.63
2022-12-12T04:18:52.514Z,42.37
2022-12-12T04:21:53.821Z,42.38
2022-12-12T04:24:32.953Z,43.85
2022-12-12T04:27:14.044Z,46.00
2022-12-12T04:29:55.362Z,50.03
2022-12-12T04:32:31.840Z,48.35
2022-12-12T04:35:41.192Z,48.28
2022-12-12T04:38:18.581Z,49.00
2022-12-12T04:40:51.573Z,46.53
2022-12-12T04:43:35.825Z,44.17
2022-12-12T04:46:12.508Z,46.90
2022-12-12T04:48:53.965Z,56.00
2022-12-12T04:51:34.700Z,48.60
2022-12-12T04:54:27.086Z,47.17
2022-12-12T04:56:58.957Z,57.55
2022-12-12T04:59:26.868Z,49.38
2022-12-12T05:02:45.650Z,45.08
2022-12-12T05:05:19.342Z,44.42
2022-12-12T05:07:56.214Z,46.13
2022-12-12T05:10:24.076Z,46.70
2022-12-12T05:12:56.764Z,44.70
2022-12-12T05:15:25.083Z,49.95
2022-12-12T05:17:56.561Z,44.72
2022-12-12T05:20:24.348Z,48.83
2022-12-12T05:22:51.763Z,49.90
2022-12-12T05:25:19.232Z,49.50
2022-12-12T05:27:46.731Z,48.45
2022-12-12T05:30:14.313Z,49.60
2022-12-12T05:32:41.786Z,51.50
2022-12-12T05:35:10.728Z,48.17
2022-12-12T05:37:38.345Z,46.65
2022-12-12T05:40:07.953Z,49.25
2022-12-12T05:42:35.510Z,45.88
2022-12-12T05:45:03.357Z,51.67
2022-12-12T05:47:30.828Z,48.47
2022-12-12T05:49:58.422Z,44.78
2022-12-12T05:52:26.228Z,47.83
2022-12-12T05:54:54.179Z,50.63
2022-12-12T05:57:22.069Z,47.25
2022-12-12T05:59:49.720Z,45.63
2022-12-12T06:02:17.505Z,45.33
2022-12-12T06:04:45.405Z,40.33
2022-12-12T06:07:13.112Z,47.00
2022-12-12T06:09:40.977Z,39.40
2022-12-12T06:12:08.917Z,41.30
2022-12-12T06:14:36.518Z,42.33
2022-12-12T06:17:03.962Z,36.95
2022-12-12T06:19:31.632Z,27.42
2022-12-12T06:21:59.127Z,30.50
2022-12-12T06:24:27.095Z,30.80
2022-12-12T06:26:54.669Z,31.63
2022-12-12T06:29:22.331Z,31.60
2022-12-12T06:31:49.907Z,26.55
2022-12-12T06:34:17.511Z,27.20
2022-12-12T06:36:45.084Z,28.83
2022-12-12T06:39:12.669Z,27.02
2022-12-12T06:41:40.179Z,24.33
2022-12-12T06:44:07.606Z,27.02
2022-12-12T06:46:35.164Z,28.77
2022-12-12T06:49:06.816Z,29.35
2022-12-12T06:51:36.534Z,32.17
2022-12-12T06:54:04.682Z,28.77
2022-12-12T06:56:32.578Z,25.15
2022-12-12T06:59:00.220Z,21.95
2022-12-12T07:01:27.887Z,25.27
2022-12-12T07:03:55.703Z,23.73
2022-12-12T07:06:23.907Z,23.15
2022-12-12T07:08:52.218Z,25.40
2022-12-12T07:11:24.783Z,24.42
2022-12-12T07:13:53.867Z,23.67
2022-12-12T07:16:21.320Z,24.63
2022-12-12T07:18:48.820Z,19.35
2022-12-12T07:21:19.180Z,26.75
2022-12-12T07:23:46.887Z,27.55
2022-12-12T07:26:17.421Z,25.42
2022-12-12T07:28:45.421Z,26.88
2022-12-12T07:31:15.681Z,26.17
2022-12-12T07:33:44.789Z,28.52
2022-12-12T07:36:13.986Z,25.25
2022-12-12T07:38:41.725Z,25.83
2022-12-12T07:41:12.519Z,28.65
2022-12-12T07:43:44.335Z,30.98
2022-12-12T07:46:16.728Z,35.92
2022-12-12T07:48:44.671Z,33.58
2022-12-12T07:51:13.171Z,33.70
2022-12-12T07:53:40.899Z,30.02
2022-12-12T07:56:10.225Z,34.10
2022-12-12T07:58:38.444Z,28.73
2022-12-12T08:01:14.569Z,27.65
2022-12-12T08:03:44.617Z,27.88
2022-12-12T08:06:13.390Z,27.38
2022-12-12T08:08:40.921Z,22.98
2022-12-12T08:11:11.069Z,25.52
2022-12-12T08:13:40.118Z,26.15
2022-12-12T08:16:12.970Z,30.45
2022-12-12T08:18:40.560Z,33.28
2022-12-12T08:21:09.593Z,28.08
2022-12-12T08:23:38.104Z,27.02
2022-12-12T08:26:08.818Z,26.30
2022-12-12T08:28:37.058Z,24.50
2022-12-12T08:31:04.856Z,24.35
2022-12-12T08:33:33.769Z,23.75
2022-12-12T08:36:10.574Z,22.05
2022-12-12T08:38:37.986Z,22.45
2022-12-12T08:41:05.611Z,24.70
2022-12-12T08:43:33.604Z,23.63
2022-12-12T08:46:01.877Z,23.17
2022-12-12T08:48:30.783Z,22.05
2022-12-12T08:50:58.555Z,25.02
2022-12-12T08:53:26.597Z,27.02
2022-12-12T08:55:54.906Z,18.58
2022-12-12T08:58:22.590Z,18.50
2022-12-12T09:00:50.167Z,21.17
2022-12-12T09:03:24.765Z,20.02
2022-12-12T09:05:56.494Z,25.48
2022-12-12T09:08:24.474Z,20.75
2022-12-12T09:10:52.056Z,21.98
2022-12-12T09:13:20.920Z,17.50
2022-12-12T09:15:52.924Z,22.65
2022-12-12T09:18:20.776Z,17.58
2022-12-12T09:20:53.191Z,17.08
2022-12-12T09:23:22.035Z,16.55
2022-12-12T09:25:50.035Z,14.38
2022-12-12T09:28:20.537Z,16.73
2022-12-12T09:30:48.006Z,18.85
2022-12-12T09:33:17.402Z,18.80
2022-12-12T09:35:45.210Z,17.67
2022-12-12T09:38:14.869Z,19.05
2022-12-12T09:40:57.158Z,18.17
2022-12-12T09:43:29.787Z,21.85
2022-12-12T09:45:58.915Z,13.25
2022-12-12T09:48:40.866Z,20.55
2022-12-12T09:51:10.156Z,19.40
2022-12-12T09:53:41.458Z,23.75
2022-12-12T09:56:43.536Z,20.83
2022-12-12T09:59:33.639Z,21.67
2022-12-12T10:02:15.945Z,20.92
2022-12-12T10:04:53.800Z,22.50
2022-12-12T10:07:38.074Z,22.95
2022-12-12T10:10:17.972Z,17.85
2022-12-12T10:12:47.899Z,27.13
2022-12-12T10:15:41.605Z,23.05
2022-12-12T10:18:25.214Z,22.98
2022-12-12T10:20:57.331Z,28.95
2022-12-12T10:23:48.726Z,25.08
2022-12-12T10:26:18.018Z,23.40
2022-12-12T10:28:49.148Z,28.05
2022-12-12T10:31:54.349Z,32.30
2022-12-12T10:34:43.613Z,27.08
2022-12-12T10:37:43.288Z,35.80
2022-12-12T10:40:24.826Z,36.53
2022-12-12T10:43:09.091Z,28.45
2022-12-12T10:46:08.984Z,26.83
2022-12-12T10:48:36.842Z,28.70
2022-12-12T10:51:07.855Z,31.48
2022-12-12T10:53:35.539Z,30.52
2022-12-12T10:56:08.011Z,32.20
2022-12-12T10:58:37.912Z,30.90
2022-12-12T11:01:28.219Z,31.80
2022-12-12T11:04:06.552Z,24.90
2022-12-12T11:06:43.820Z,22.25
2022-12-12T11:09:14.247Z,28.08
2022-12-12T11:11:56.132Z,25.30
2022-12-12T11:14:32.675Z,23.52
2022-12-12T11:17:00.284Z,26.40
2022-12-12T11:19:35.840Z,24.95
2022-12-12T11:22:04.979Z,26.05
2022-12-12T11:24:34.988Z,24.67
2022-12-12T11:27:06.313Z,25.73
2022-12-12T11:29:39.689Z,27.13
2022-12-12T11:32:40.695Z,27.75
2022-12-12T11:35:47.017Z,25.83
2022-12-12T11:38:24.186Z,25.58
2022-12-12T11:41:02.449Z,32.03
2022-12-12T11:43:37.218Z,28.88
2022-12-12T11:46:34.336Z,28.02
2022-12-12T11:49:04.305Z,21.33
2022-12-12T11:51:40.905Z,31.20
2022-12-12T11:54:29.802Z,32.80
2022-12-12T11:57:02.238Z,30.20
2022-12-12T11:59:50.173Z,32.05
2022-12-12T12:02:23.672Z,32.00
2022-12-12T12:05:20.514Z,29.73
2022-12-12T12:08:03.233Z,28.08
2022-12-12T12:10:55.766Z,28.05
2022-12-12T12:14:00.746Z,26.58
2022-12-12T12:16:28.341Z,31.05
2022-12-12T12:19:18.303Z,30.30
2022-12-12T12:22:03.885Z,29.25
2022-12-12T12:25:07.869Z,27.05
2022-12-12T12:28:05.649Z,24.70
2022-12-12T12:30:45.471Z,30.05
2022-12-12T12:33:35.180Z,28.10
2022-12-12T12:36:20.873Z,28.00
2022-12-12T12:39:03.296Z,32.25
2022-12-12T12:41:58.249Z,30.77
2022-12-12T12:44:40.861Z,33.78
2022-12-12T12:47:26.625Z,33.67
2022-12-12T12:50:14.498Z,31.48
2022-12-12T12:52:53.658Z,40.78
2022-12-12T12:55:26.581Z,46.75
2022-12-12T12:57:54.695Z,44.72
2022-12-12T13:00:26.616Z,45.38
2022-12-12T13:02:54.368Z,49.63
2022-12-12T13:05:43.897Z,46.55
2022-12-12T13:08:33.772Z,53.35
2022-12-12T13:11:38.089Z,46.38
2022-12-12T13:14:26.920Z,50.90
2022-12-12T13:17:06.297Z,47.55
2022-12-12T13:19:40.417Z,50.47
2022-12-12T13:22:20.342Z,44.38
2022-12-12T13:24:59.460Z,51.45
2022-12-12T13:27:45.789Z,50.22
2022-12-12T13:30:25.002Z,51.00
2022-12-12T13:33:24.157Z,51.15
2022-12-12T13:35:56.087Z,51.58
2022-12-12T13:38:26.528Z,47.13
2022-12-12T13:41:02.577Z,50.60
2022-12-12T13:43:44.494Z,47.20
2022-12-12T13:46:27.493Z,47.53
2022-12-12T13:48:55.232Z,45.58
2022-12-12T13:51:30.320Z,47.33
2022-12-12T13:54:12.092Z,49.35
2022-12-12T13:56:44.549Z,62.75
2022-12-12T13:59:25.279Z,61.25
2022-12-12T14:01:56.254Z,64.93
2022-12-12T14:04:32.725Z,57.85
2022-12-12T14:07:19.602Z,64.30
2022-12-12T14:09:51.771Z,75.15
2022-12-12T14:12:31.086Z,67.50
2022-12-12T14:15:07.256Z,70.93
2022-12-12T14:17:42.531Z,65.60
2022-12-12T14:20:43.508Z,65.00
2022-12-12T14:23:24.895Z,76.73
2022-12-12T14:25:53.137Z,62.60
2022-12-12T14:28:23.875Z,64.93
2022-12-12T14:30:57.105Z,67.00
2022-12-12T14:33:51.250Z,57.60
2022-12-12T14:36:43.766Z,69.28
2022-12-12T14:39:20.721Z,69.90
2022-12-12T14:41:49.415Z,66.10
2022-12-12T14:44:36.282Z,63.35
2022-12-12T14:47:10.306Z,62.85
2022-12-12T14:49:37.755Z,56.72
2022-12-12T14:52:05.740Z,64.72
2022-12-12T14:54:33.234Z,68.40
2022-12-12T14:57:01.443Z,73.13
2022-12-12T14:59:37.752Z,65.47
2022-12-12T15:02:32.655Z,63.75
2022-12-12T15:05:05.500Z,61.50
2022-12-12T15:07:35.029Z,69.43
2022-12-12T15:10:02.920Z,70.50
2022-12-12T15:12:35.793Z,62.03
2022-12-12T15:15:05.218Z,67.25
2022-12-12T15:17:39.105Z,70.85
2022-12-12T15:20:15.333Z,61.00
2022-12-12T15:23:00.480Z,66.32
2022-12-12T15:25:31.595Z,65.53
2022-12-12T15:27:59.569Z,60.00
2022-12-12T15:30:42.851Z,63.22
2022-12-12T15:33:19.998Z,58.78
2022-12-12T15:35:57.869Z,60.10
2022-12-12T15:38:29.408Z,68.70
2022-12-12T15:41:06.690Z,68.55
2022-12-12T15:43:38.773Z,60.03
2022-12-12T15:46:14.608Z,67.60
2022-12-12T15:48:47.363Z,60.13
2022-12-12T15:51:22.777Z,62.63
2022-12-12T15:53:55.616Z,63.10
2022-12-12T15:56:29.224Z,60.33
2022-12-12T15:59:16.200Z,63.83
2022-12-12T16:01:44.114Z,63.33
2022-12-12T16:04:11.669Z,57.30
2022-12-12T16:06:45.353Z,64.53
2022-12-12T16:09:15.586Z,69.28
2022-12-12T16:11:51.117Z,69.75
2022-12-12T16:14:37.021Z,64.18
2022-12-12T16:17:23.498Z,72.13
2022-12-12T16:20:03.857Z,77.63
2022-12-12T16:22:36.715Z,65.40
2022-12-12T16:25:17.345Z,64.18
2022-12-12T16:27:47.069Z,63.58
2022-12-12T16:30:15.439Z,64.20
2022-12-12T16:32:43.559Z,62.15
2022-12-12T16:35:16.514Z,63.22
2022-12-12T16:37:45.669Z,71.97
2022-12-12T16:40:15.528Z,64.18
2022-12-12T16:42:55.139Z,61.95
2022-12-12T16:45:22.864Z,64.10
2022-12-12T16:47:50.449Z,66.68
2022-12-12T16:50:17.984Z,71.15
2022-12-12T16:52:45.482Z,62.00
2022-12-12T16:55:23.736Z,66.90
2022-12-12T16:57:51.188Z,66.78
2022-12-12T17:00:18.880Z,64.97
2022-12-12T17:02:46.343Z,70.93
2022-12-12T17:05:19.996Z,63.05
2022-12-12T17:07:47.604Z,59.88
2022-12-12T17:10:15.353Z,69.53
2022-12-12T17:12:42.999Z,65.90
2022-12-12T17:15:16.286Z,62.85
2022-12-12T17:17:43.765Z,63.30
2022-12-12T17:20:12.267Z,66.63
2022-12-12T17:22:40.990Z,69.43
2022-12-12T17:25:08.765Z,75.22
2022-12-12T17:27:38.111Z,62.03
2022-12-12T17:30:08.146Z,61.58
2022-12-12T17:32:36.663Z,62.27
2022-12-12T17:35:05.692Z,54.95
2022-12-12T17:37:34.033Z,98.20
2022-12-12T17:40:02.341Z,64.18
2022-12-12T17:42:31.462Z,57.55
2022-12-12T17:44:59.301Z,56.35
2022-12-12T17:47:27.213Z,54.42
2022-12-12T17:49:54.677Z,53.40
2022-12-12T17:52:22.157Z,56.75
2022-12-12T17:55:53.122Z,60.55
2022-12-12T17:57:37.303Z,73.60
2022-12-12T18:00:07.033Z,68.57
2022-12-12T18:02:40.480Z,64.78
2022-12-12T18:05:09.748Z,48.92
2022-12-12T18:07:37.539Z,61.78
2022-12-12T18:10:05.616Z,37.92
2022-12-12T18:12:33.628Z,38.65
2022-12-12T18:15:01.497Z,39.17
2022-12-12T18:17:28.985Z,36.63
2022-12-12T18:19:56.526Z,43.22
2022-12-12T18:22:24.011Z,44.13
2022-12-12T18:24:51.409Z,49.70
2022-12-12T18:27:18.936Z,44.05
2022-12-12T18:29:47.722Z,44.40
2022-12-12T18:32:15.343Z,54.97
2022-12-12T18:34:42.950Z,53.70
2022-12-12T18:37:10.650Z,46.35
2022-12-12T18:39:38.131Z,48.92
2022-12-12T18:42:05.648Z,50.72
2022-12-12T18:44:33.112Z,51.40
2022-12-12T18:47:00.674Z,50.70
2022-12-12T18:49:28.108Z,44.90
2022-12-12T18:51:55.698Z,40.88
2022-12-12T18:54:23.203Z,51.80
2022-12-12T18:56:50.847Z,53.38
2022-12-12T18:59:18.370Z,59.45
2022-12-12T19:01:46.088Z,57.47
2022-12-12T19:04:20.962Z,51.83
2022-12-12T19:06:52.554Z,46.15
2022-12-12T19:09:20.792Z,53.55
2022-12-12T19:11:49.968Z,49.20
2022-12-12T19:14:17.758Z,47.85
2022-12-12T19:16:45.952Z,44.28
2022-12-12T19:19:14.288Z,44.80
2022-12-12T19:21:42.773Z,46.92
2022-12-12T19:24:12.538Z,44.80
2022-12-12T19:26:43.697Z,46.08
2022-12-12T19:29:14.158Z,47.67
2022-12-12T19:31:41.716Z,46.40
2022-12-12T19:34:11.639Z,44.92
2022-12-12T19:36:39.626Z,44.92
2022-12-12T19:39:08.465Z,42.55
2022-12-12T19:41:36.566Z,42.33
2022-12-12T19:44:04.761Z,42.92
2022-12-12T19:46:33.134Z,40.45
2022-12-12T19:49:02.800Z,40.67
2022-12-12T19:51:36.129Z,39.13
2022-12-12T19:54:08.847Z,36.67
2022-12-12T19:56:38.098Z,41.45
2022-12-12T19:59:06.017Z,41.22
2022-12-12T20:01:36.016Z,41.50
2022-12-12T20:04:19.909Z,38.05
2022-12-12T20:06:49.286Z,39.17
2022-12-12T20:09:18.091Z,38.95
2022-12-12T20:11:45.700Z,40.13
2022-12-12T20:14:19.538Z,37.10
2022-12-12T20:16:47.924Z,44.80
2022-12-12T20:19:15.974Z,37.30
2022-12-12T20:22:02.448Z,40.42
2022-12-12T20:24:32.336Z,46.15
2022-12-12T20:27:00.715Z,49.78
2022-12-12T20:29:29.175Z,48.42
2022-12-12T20:31:56.971Z,49.45
2022-12-12T20:34:25.052Z,43.05
2022-12-12T20:36:55.810Z,45.60
2022-12-12T20:39:24.831Z,43.85
2022-12-12T20:41:53.644Z,45.15
2022-12-12T20:44:22.441Z,46.55
2022-12-12T20:46:50.099Z,43.35
2022-12-12T20:49:19.900Z,43.88
2022-12-12T20:51:56.398Z,40.58
2022-12-12T20:54:26.229Z,44.45
2022-12-12T20:56:54.829Z,46.75
2022-12-12T20:59:23.907Z,47.95
2022-12-12T21:01:52.447Z,45.80
2022-12-12T21:04:20.688Z,50.72
2022-12-12T21:06:50.123Z,48.55
2022-12-12T21:09:24.326Z,48.70
2022-12-12T21:11:55.044Z,46.65
2022-12-12T21:14:23.092Z,47.70
2022-12-12T21:16:51.371Z,45.28
2022-12-12T21:19:19.049Z,47.70
2022-12-12T21:21:46.963Z,46.60
2022-12-12T21:24:16.879Z,48.17
2022-12-12T21:26:44.874Z,46.72
2022-12-12T21:29:12.905Z,50.97
2022-12-12T21:31:49.898Z,44.45
2022-12-12T21:34:23.075Z,43.00
2022-12-12T21:36:54.824Z,37.85
2022-12-12T21:39:27.438Z,39.65
2022-12-12T21:41:55.671Z,41.08
2022-12-12T21:44:24.024Z,40.78
2022-12-12T21:46:52.144Z,40.25
2022-12-12T21:49:19.884Z,42.10
2022-12-12T21:51:48.512Z,46.55
2022-12-12T21:54:16.083Z,41.95
2022-12-12T21:56:44.312Z,40.80
2022-12-12T21:59:13.214Z,37.95
2022-12-12T22:01:41.622Z,40.35
2022-12-12T22:04:11.431Z,44.70
2022-12-12T22:06:39.889Z,39.65
2022-12-12T22:09:10.126Z,44.90
2022-12-12T22:11:40.066Z,46.22
2022-12-12T22:14:17.509Z,45.97
2022-12-12T22:16:45.278Z,48.50
2022-12-12T22:19:14.493Z,47.65
2022-12-12T22:21:44.757Z,48.97
2022-12-12T22:24:12.332Z,47.15
2022-12-12T22:26:42.459Z,40.22
2022-12-12T22:29:15.638Z,40.57
2022-12-12T22:31:44.809Z,42.55
2022-12-12T22:34:18.095Z,42.95
2022-12-12T22:36:46.366Z,38.55
2022-12-12T22:39:17.650Z,40.05
2022-12-12T22:41:46.082Z,44.63
2022-12-12T22:44:17.883Z,49.22
2022-12-12T22:46:46.802Z,49.08
2022-12-12T22:49:16.593Z,42.08
2022-12-12T22:51:44.973Z,48.38
2022-12-12T22:54:13.360Z,49.13
2022-12-12T22:56:41.440Z,48.28
2022-12-12T22:59:10.536Z,42.72
2022-12-12T23:01:38.290Z,50.35
2022-12-12T23:04:06.115Z,43.03
2022-12-12T23:06:35.658Z,50.38
2022-12-12T23:09:07.155Z,48.75
2022-12-12T23:11:36.577Z,51.25
2022-12-12T23:14:08.983Z,46.88
2022-12-12T23:16:36.724Z,42.70
2022-12-12T23:19:06.554Z,41.38
2022-12-12T23:21:35.737Z,46.20
2022-12-12T23:24:04.683Z,44.85
2022-12-12T23:26:34.267Z,48.53
2022-12-12T23:29:02.985Z,41.97
2022-12-12T23:31:32.938Z,49.50
2022-12-12T23:34:07.473Z,45.83
2022-12-12T23:36:35.034Z,48.10
2022-12-12T23:39:08.100Z,48.67
2022-12-12T23:41:36.770Z,52.25
2022-12-12T23:44:05.570Z,50.97
2022-12-12T23:46:34.335Z,53.40
2022-12-12T23:49:07.542Z,52.70
2022-12-12T23:51:44.437Z,47.03
2022-12-12T23:54:14.435Z,45.60
2022-12-12T23:56:43.171Z,54.73
2022-12-12T23:59:17.140Z,49.20
